Nearby METAR Reports

 

KMNN - Marion, Ohio, USA
Distance from station: ENE 4mi, 6km
Updated: 11/21/2019 10:53am
Overcast
Overcast
 Wind from S
Wind: S 15 mph , 24 km/h
Temperature: 45°F , 7°C
Wind Chill: 38°F , 3°C
Dew Point: 37°F , 3°C
Humidity: 76%
Barometer: 30.06 inHg , 1017.9 hPa
Clouds: Overcast
Visibility: 8 miles , 13 km
Cloud details: Overcast 11000 ft
2019/11/21 15:53 KMNN 211553Z AUTO 18013KT 8SM OVC110 07/03 A3006 RMK AO2 SLP188 T00720033
KDLZ - Delaware, Ohio, USA
Distance from station: S 21mi, 34km
Updated: 11/21/2019 10:55am
Overcast
Overcast
 Wind from S
Wind: S 9 mph , 15 km/h
Temperature: 45°F , 7°C
Wind Chill: 40°F , 4°C
Dew Point: 37°F , 3°C
Humidity: 76%
Barometer: 30.08 inHg , 1018.6 hPa
Clouds: Overcast
Visibility: 10 miles , 16 km
Cloud details: Overcast 11000 ft
2019/11/21 15:55 KDLZ 211555Z AUTO 17008KT 10SM OVC110 07/03 A3008 RMK AO2
 
KMRT - Marysville, Ohio, USA
Distance from station: SSW 28mi, 45km
Updated: 11/21/2019 10:55am
Partly cloudy
Partly cloudy
 Wind from SSW
Wind: SSW 15 mph , 24 km/h, Gust: 18 mph , 30 km/h
Temperature: 45°F , 7°C
Wind Chill: 38°F , 3°C
Dew Point: 39°F , 4°C
Humidity: 81%
Barometer: 30.07 inHg , 1018.3 hPa
Clouds: Partly cloudy
Visibility: 10 miles , 16 km
Cloud details: Partly cloudy 11000 ft
2019/11/21 15:55 KMRT 211555Z AUTO 20013G16KT 10SM SCT110 07/04 A3007 RMK AO2 T00700036
KOSU - Columbus/St Univ, Ohio, USA
Distance from station: S 35mi, 56km
Updated: 11/21/2019 10:53am
Overcast
Overcast
 Wind from S
Wind: S 9 mph , 15 km/h
Temperature: 46°F , 8°C
Wind Chill: 41°F , 5°C
Dew Point: 37°F , 3°C
Humidity: 71%
Barometer: 30.09 inHg , 1019 hPa
Clouds: Overcast
Visibility: 10 miles , 16 km
Cloud details: Overcast 11000 ft
2019/11/21 15:53 KOSU 211553Z 17008KT 10SM OVC110 08/03 A3009 RMK AO2 SLP193 T00780028
 
KMFD - Mansfield, Ohio, USA
Distance from station: ENE 36mi, 57km
Updated: 11/21/2019 10:52am
Overcast
Overcast
 Wind from S
Wind: S 20 mph , 31 km/h
Temperature: 45°F , 7°C
Wind Chill: 37°F , 3°C
Dew Point: 37°F , 3°C
Humidity: 76%
Barometer: 30.05 inHg , 1017.6 hPa
Clouds: Overcast
Visibility: 10 miles , 16 km
Cloud details: Overcast 11000 ft
2019/11/21 15:52 KMFD 211552Z 17017KT 10SM OVC110 07/03 A3005 RMK AO2 SLP185 T00720028 $
K4I3 - Mt Vernon/Knox, Ohio, USA
Distance from station: ESE 36mi, 58km
Updated: 11/20/2019 9:42am
NOT Current
Clear
Clear
 Wind from N
Wind: N 6 mph , 9 km/h
Temperature: 39°F , 4°C
Wind Chill: 35°F , 2°C
Dew Point: 32°F , 0°C
Humidity: 75%
Barometer: 30.19 inHg , 1022.4 hPa
Clouds: Clear
Visibility: 7 miles , 11 km
2019/11/20 14:42 K4I3 201442Z AUTO 35005KT 7SM CLR 04/00 A3019 RMK AO2
 
KEDJ - Bellefontaine, Ohio, USA
Distance from station: WSW 39mi, 63km
Updated: 11/21/2019 10:35am
Clear
Clear
 Wind from SSE
Wind: SSE 14 mph , 22 km/h
Temperature: 45°F , 7°C
Wind Chill: 39°F , 4°C
Barometer: 30.04 inHg , 1017.3 hPa
Clouds: Clear
Visibility: 10 miles , 16 km
2019/11/21 15:35 KEDJ 211535Z AUTO 16012KT 10SM CLR 07/ A3004 RMK AO1
KFDY - Findlay, Ohio, USA
Distance from station: NW 41mi, 66km
Updated: 11/21/2019 10:53am
Overcast
Overcast
 Wind from S
Wind: S 12 mph , 19 km/h
Temperature: 46°F , 8°C
Wind Chill: 40°F , 4°C
Dew Point: 39°F , 4°C
Humidity: 76%
Barometer: 30.01 inHg , 1016.3 hPa
Clouds: Overcast
Visibility: 10 miles , 16 km
Cloud details: Overcast 10000 ft
2019/11/21 15:53 KFDY 211553Z AUTO 17010KT 10SM OVC100 08/04 A3001 RMK AO2 SLP162 T00830044
 
KCMH - Columbus, Ohio, USA
Distance from station: SSE 43mi, 69km
Updated: 11/21/2019 10:51am
Overcast
Overcast
 Wind from SSE
Wind: SSE 8 mph , 13 km/h
Temperature: 46°F , 8°C
Wind Chill: 42°F , 6°C
Dew Point: 37°F , 3°C
Humidity: 71%
Barometer: 30.10 inHg , 1019.3 hPa
Clouds: Overcast
Visibility: 10 miles , 16 km
Cloud details: Overcast 12000 ft
2019/11/21 15:51 KCMH 211551Z 15007KT 10SM OVC120 08/03 A3010 RMK AO2 SLP195 T00830028
KAOH - Lima, Ohio, USA
Distance from station: W 47mi, 76km
Updated: 11/21/2019 10:53am
Overcast
Overcast
 Wind from S
Wind: S 14 mph , 22 km/h, Gust: 24 mph , 39 km/h
Temperature: 48°F , 9°C
Wind Chill: 42°F , 6°C
Dew Point: 39°F , 4°C
Humidity: 71%
Barometer: 30.00 inHg , 1015.9 hPa
Clouds: Overcast
Visibility: 10 miles , 16 km
Cloud details: Overcast 10000 ft
2019/11/21 15:53 KAOH 211553Z AUTO 18012G21KT 10SM OVC100 09/04 A3000 RMK AO2 SLP163 T00890039
 
KTZR - Columbus/Bolton, Ohio, USA
Distance from station: S 48mi, 77km
Updated: 11/21/2019 10:50am
Overcast
Overcast
 Wind from S
Wind: S 9 mph , 15 km/h
Temperature: 45°F , 7°C
Wind Chill: 40°F , 4°C
Dew Point: 39°F , 4°C
Humidity: 81%
Barometer: 30.10 inHg , 1019.3 hPa
Clouds: Overcast
Visibility: 10 miles , 16 km
Cloud details: Overcast 11000 ft
2019/11/21 15:50 KTZR 211550Z 19008KT 10SM OVC110 07/04 A3010
KUYF - London, Ohio, USA
Distance from station: SSW 49mi, 78km
Updated: 11/21/2019 10:55am
Overcast
Overcast
 Wind from S
Wind: S 12 mph , 19 km/h
Temperature: 45°F , 7°C
Wind Chill: 39°F , 4°C
Dew Point: 43°F , 6°C
Humidity: 93%
Barometer: 30.07 inHg , 1018.3 hPa
Clouds: Overcast
Visibility: 10 miles , 16 km
Cloud details: Partly cloudy 10000 ft
Overcast 11000 ft
2019/11/21 15:55 KUYF 211555Z AUTO 19010KT 10SM SCT100 OVC110 07/06 A3007 RMK AO2